sensor_id;sensor_type;location;lat;lon;timestamp;temperature;humidity
64685;DHT22;51109;47.414;18.954;2022-10-22T00:02:25;11.10;99.90
64685;DHT22;51109;47.414;18.954;2022-10-22T00:04:52;11.10;99.90
64685;DHT22;51109;47.414;18.954;2022-10-22T00:07:19;11.10;99.90
64685;DHT22;51109;47.414;18.954;2022-10-22T00:09:46;11.10;99.90
64685;DHT22;51109;47.414;18.954;2022-10-22T00:12:14;11.10;99.90
64685;DHT22;51109;47.414;18.954;2022-10-22T00:14:40;11.10;99.90
64685;DHT22;51109;47.414;18.954;2022-10-22T00:17:06;11.00;99.90
64685;DHT22;51109;47.414;18.954;2022-10-22T00:19:32;11.00;99.90
64685;DHT22;51109;47.414;18.954;2022-10-22T00:21:58;11.00;99.90
64685;DHT22;51109;47.414;18.954;2022-10-22T00:24:25;11.10;99.90
64685;DHT22;51109;47.414;18.954;2022-10-22T00:26:51;11.10;99.90
64685;DHT22;51109;47.414;18.954;2022-10-22T00:29:17;11.10;99.90
64685;DHT22;51109;47.414;18.954;2022-10-22T00:31:46;11.10;99.90
64685;DHT22;51109;47.414;18.954;2022-10-22T00:34:16;11.10;99.90
64685;DHT22;51109;47.414;18.954;2022-10-22T00:36:42;11.10;99.90
64685;DHT22;51109;47.414;18.954;2022-10-22T00:39:09;11.10;99.90
64685;DHT22;51109;47.414;18.954;2022-10-22T00:41:34;11.00;99.90
64685;DHT22;51109;47.414;18.954;2022-10-22T00:44:03;11.00;99.90
64685;DHT22;51109;47.414;18.954;2022-10-22T00:46:29;11.00;99.90
64685;DHT22;51109;47.414;18.954;2022-10-22T00:48:58;11.00;99.90
64685;DHT22;51109;47.414;18.954;2022-10-22T00:51:28;11.10;99.90
64685;DHT22;51109;47.414;18.954;2022-10-22T00:54:00;11.10;99.90
64685;DHT22;51109;47.414;18.954;2022-10-22T00:56:27;11.10;99.90
64685;DHT22;51109;47.414;18.954;2022-10-22T00:58:56;11.10;99.90
64685;DHT22;51109;47.414;18.954;2022-10-22T01:01:29;11.10;99.90
64685;DHT22;51109;47.414;18.954;2022-10-22T01:03:56;11.10;99.90
64685;DHT22;51109;47.414;18.954;2022-10-22T01:06:32;11.10;99.90
64685;DHT22;51109;47.414;18.954;2022-10-22T01:09:42;11.10;99.90
64685;DHT22;51109;47.414;18.954;2022-10-22T01:17:46;11.10;99.90
64685;DHT22;51109;47.414;18.954;2022-10-22T01:25:37;11.00;99.90
64685;DHT22;51109;47.414;18.954;2022-10-22T01:31:11;11.00;99.90
64685;DHT22;51109;47.414;18.954;2022-10-22T01:33:39;11.00;99.90
64685;DHT22;51109;47.414;18.954;2022-10-22T01:36:05;11.00;99.90
64685;DHT22;51109;47.414;18.954;2022-10-22T01:38:32;11.00;99.90
64685;DHT22;51109;47.414;18.954;2022-10-22T01:40:59;11.00;99.90
64685;DHT22;51109;47.414;18.954;2022-10-22T01:43:25;11.00;99.90
64685;DHT22;51109;47.414;18.954;2022-10-22T01:45:55;11.00;99.90
64685;DHT22;51109;47.414;18.954;2022-10-22T01:54:16;11.00;99.90
64685;DHT22;51109;47.414;18.954;2022-10-22T01:57:04;11.10;99.90
64685;DHT22;51109;47.414;18.954;2022-10-22T01:59:41;11.10;99.90
64685;DHT22;51109;47.414;18.954;2022-10-22T02:04:52;11.10;99.90
64685;DHT22;51109;47.414;18.954;2022-10-22T02:07:22;10.90;99.90
64685;DHT22;51109;47.414;18.954;2022-10-22T02:09:50;10.90;99.90
64685;DHT22;51109;47.414;18.954;2022-10-22T02:12:19;11.00;99.90
64685;DHT22;51109;47.414;18.954;2022-10-22T02:14:47;10.90;99.90
64685;DHT22;51109;47.414;18.954;2022-10-22T02:17:18;10.90;99.90
64685;DHT22;51109;47.414;18.954;2022-10-22T02:20:06;10.90;99.90
64685;DHT22;51109;47.414;18.954;2022-10-22T02:22:34;10.90;99.90
64685;DHT22;51109;47.414;18.954;2022-10-22T02:25:02;10.90;99.90
64685;DHT22;51109;47.414;18.954;2022-10-22T02:27:37;10.80;99.90
64685;DHT22;51109;47.414;18.954;2022-10-22T02:30:06;10.70;99.90
64685;DHT22;51109;47.414;18.954;2022-10-22T02:32:56;10.70;99.90
64685;DHT22;51109;47.414;18.954;2022-10-22T02:35:26;10.70;99.90
64685;DHT22;51109;47.414;18.954;2022-10-22T02:37:54;10.80;99.90
64685;DHT22;51109;47.414;18.954;2022-10-22T02:40:21;10.80;99.90
64685;DHT22;51109;47.414;18.954;2022-10-22T02:42:49;10.80;99.90
64685;DHT22;51109;47.414;18.954;2022-10-22T02:45:16;10.70;99.90
64685;DHT22;51109;47.414;18.954;2022-10-22T02:47:42;10.70;99.90
64685;DHT22;51109;47.414;18.954;2022-10-22T02:50:08;10.50;99.90
64685;DHT22;51109;47.414;18.954;2022-10-22T02:52:34;10.40;99.90
64685;DHT22;51109;47.414;18.954;2022-10-22T02:55:00;10.30;99.90
64685;DHT22;51109;47.414;18.954;2022-10-22T02:57:26;10.40;99.90
64685;DHT22;51109;47.414;18.954;2022-10-22T02:59:52;10.30;99.90
64685;DHT22;51109;47.414;18.954;2022-10-22T03:04:45;10.30;99.90
64685;DHT22;51109;47.414;18.954;2022-10-22T03:07:11;10.20;99.90
64685;DHT22;51109;47.414;18.954;2022-10-22T03:09:37;10.20;99.90
64685;DHT22;51109;47.414;18.954;2022-10-22T03:12:04;10.10;99.90
64685;DHT22;51109;47.414;18.954;2022-10-22T03:14:30;10.10;99.90
64685;DHT22;51109;47.414;18.954;2022-10-22T03:16:55;10.10;99.90
64685;DHT22;51109;47.414;18.954;2022-10-22T03:19:21;10.00;99.90
64685;DHT22;51109;47.414;18.954;2022-10-22T03:22:00;10.00;99.90
64685;DHT22;51109;47.414;18.954;2022-10-22T03:24:59;10.00;99.90
64685;DHT22;51109;47.414;18.954;2022-10-22T03:27:28;10.00;99.90
64685;DHT22;51109;47.414;18.954;2022-10-22T03:29:54;10.00;99.90
64685;DHT22;51109;47.414;18.954;2022-10-22T03:32:21;10.00;99.90
64685;DHT22;51109;47.414;18.954;2022-10-22T03:34:46;10.00;99.90
64685;DHT22;51109;47.414;18.954;2022-10-22T03:37:12;10.10;99.90
64685;DHT22;51109;47.414;18.954;2022-10-22T03:39:39;10.10;99.90
64685;DHT22;51109;47.414;18.954;2022-10-22T03:42:05;10.10;99.90
64685;DHT22;51109;47.414;18.954;2022-10-22T03:44:32;10.10;99.90
64685;DHT22;51109;47.414;18.954;2022-10-22T03:46:58;10.10;99.90
64685;DHT22;51109;47.414;18.954;2022-10-22T03:49:24;10.10;99.90
64685;DHT22;51109;47.414;18.954;2022-10-22T03:51:50;10.10;99.90
64685;DHT22;51109;47.414;18.954;2022-10-22T03:54:16;9.90;99.90
64685;DHT22;51109;47.414;18.954;2022-10-22T03:56:42;9.70;99.90
64685;DHT22;51109;47.414;18.954;2022-10-22T03:59:07;9.80;99.90
64685;DHT22;51109;47.414;18.954;2022-10-22T04:01:33;9.80;99.90
64685;DHT22;51109;47.414;18.954;2022-10-22T04:03:59;10.00;99.90
64685;DHT22;51109;47.414;18.954;2022-10-22T04:06:25;10.00;99.90
64685;DHT22;51109;47.414;18.954;2022-10-22T04:08:51;10.00;99.90
64685;DHT22;51109;47.414;18.954;2022-10-22T04:11:17;10.00;99.90
64685;DHT22;51109;47.414;18.954;2022-10-22T04:13:43;10.00;99.90
64685;DHT22;51109;47.414;18.954;2022-10-22T04:16:16;10.00;99.90
64685;DHT22;51109;47.414;18.954;2022-10-22T04:18:44;10.00;99.90
64685;DHT22;51109;47.414;18.954;2022-10-22T04:21:11;9.90;99.90
64685;DHT22;51109;47.414;18.954;2022-10-22T04:23:38;10.00;99.90
64685;DHT22;51109;47.414;18.954;2022-10-22T04:26:05;10.00;99.90
64685;DHT22;51109;47.414;18.954;2022-10-22T04:28:33;10.00;99.90
64685;DHT22;51109;47.414;18.954;2022-10-22T04:30:59;10.00;99.90
64685;DHT22;51109;47.414;18.954;2022-10-22T04:33:25;10.00;99.90
64685;DHT22;51109;47.414;18.954;2022-10-22T04:35:51;10.00;99.90
64685;DHT22;51109;47.414;18.954;2022-10-22T04:38:17;9.90;99.90
64685;DHT22;51109;47.414;18.954;2022-10-22T04:40:43;10.00;99.90
64685;DHT22;51109;47.414;18.954;2022-10-22T04:43:09;10.00;99.90
64685;DHT22;51109;47.414;18.954;2022-10-22T04:45:35;10.00;99.90
64685;DHT22;51109;47.414;18.954;2022-10-22T04:48:01;10.10;99.90
64685;DHT22;51109;47.414;18.954;2022-10-22T04:50:27;10.10;99.90
64685;DHT22;51109;47.414;18.954;2022-10-22T04:52:53;10.10;99.90
64685;DHT22;51109;47.414;18.954;2022-10-22T04:55:18;10.00;99.90
64685;DHT22;51109;47.414;18.954;2022-10-22T04:57:44;9.80;99.90
64685;DHT22;51109;47.414;18.954;2022-10-22T05:00:10;9.70;99.90
64685;DHT22;51109;47.414;18.954;2022-10-22T05:02:36;9.70;99.90
64685;DHT22;51109;47.414;18.954;2022-10-22T05:05:02;9.70;99.90
64685;DHT22;51109;47.414;18.954;2022-10-22T05:07:29;9.80;99.90
64685;DHT22;51109;47.414;18.954;2022-10-22T05:09:54;9.80;99.90
64685;DHT22;51109;47.414;18.954;2022-10-22T05:12:20;9.80;99.90
64685;DHT22;51109;47.414;18.954;2022-10-22T05:14:46;9.80;99.90
64685;DHT22;51109;47.414;18.954;2022-10-22T05:17:12;9.70;99.90
64685;DHT22;51109;47.414;18.954;2022-10-22T05:19:38;9.70;99.90
64685;DHT22;51109;47.414;18.954;2022-10-22T05:22:04;9.80;99.90
64685;DHT22;51109;47.414;18.954;2022-10-22T05:24:31;9.70;99.90
64685;DHT22;51109;47.414;18.954;2022-10-22T05:26:58;9.80;99.90
64685;DHT22;51109;47.414;18.954;2022-10-22T05:29:25;9.60;99.90
64685;DHT22;51109;47.414;18.954;2022-10-22T05:31:51;9.70;99.90
64685;DHT22;51109;47.414;18.954;2022-10-22T05:34:18;9.80;99.90
64685;DHT22;51109;47.414;18.954;2022-10-22T05:36:44;9.70;99.90
64685;DHT22;51109;47.414;18.954;2022-10-22T05:39:11;9.70;99.90
64685;DHT22;51109;47.414;18.954;2022-10-22T05:41:37;9.70;99.90
64685;DHT22;51109;47.414;18.954;2022-10-22T05:44:03;9.80;99.90
64685;DHT22;51109;47.414;18.954;2022-10-22T05:46:33;9.80;99.90
64685;DHT22;51109;47.414;18.954;2022-10-22T05:49:02;9.90;99.90
64685;DHT22;51109;47.414;18.954;2022-10-22T05:51:30;9.90;99.90
64685;DHT22;51109;47.414;18.954;2022-10-22T05:53:58;9.90;99.90
64685;DHT22;51109;47.414;18.954;2022-10-22T05:56:25;9.90;99.90
64685;DHT22;51109;47.414;18.954;2022-10-22T05:58:51;10.00;99.90
64685;DHT22;51109;47.414;18.954;2022-10-22T06:01:19;10.00;99.90
64685;DHT22;51109;47.414;18.954;2022-10-22T06:03:46;10.00;99.90
64685;DHT22;51109;47.414;18.954;2022-10-22T06:09:05;10.10;99.90
64685;DHT22;51109;47.414;18.954;2022-10-22T06:11:32;10.10;99.90
64685;DHT22;51109;47.414;18.954;2022-10-22T06:13:58;10.20;99.90
64685;DHT22;51109;47.414;18.954;2022-10-22T06:16:24;10.20;99.90
64685;DHT22;51109;47.414;18.954;2022-10-22T06:18:50;10.30;99.90
64685;DHT22;51109;47.414;18.954;2022-10-22T06:21:16;10.30;99.90
64685;DHT22;51109;47.414;18.954;2022-10-22T06:23:42;10.40;99.90
64685;DHT22;51109;47.414;18.954;2022-10-22T06:26:08;10.40;99.90
64685;DHT22;51109;47.414;18.954;2022-10-22T06:28:35;10.40;99.90
64685;DHT22;51109;47.414;18.954;2022-10-22T06:31:02;10.50;99.90
64685;DHT22;51109;47.414;18.954;2022-10-22T06:33:31;10.50;99.90
64685;DHT22;51109;47.414;18.954;2022-10-22T06:36:11;10.60;99.90
64685;DHT22;51109;47.414;18.954;2022-10-22T06:38:37;10.60;99.90
64685;DHT22;51109;47.414;18.954;2022-10-22T06:41:06;10.70;99.90
64685;DHT22;51109;47.414;18.954;2022-10-22T06:43:32;10.80;99.90
64685;DHT22;51109;47.414;18.954;2022-10-22T06:46:03;11.00;99.90
64685;DHT22;51109;47.414;18.954;2022-10-22T06:48:29;11.10;99.90
64685;DHT22;51109;47.414;18.954;2022-10-22T06:50:55;11.20;99.90
64685;DHT22;51109;47.414;18.954;2022-10-22T06:53:25;11.30;99.90
64685;DHT22;51109;47.414;18.954;2022-10-22T06:55:51;11.40;99.90
64685;DHT22;51109;47.414;18.954;2022-10-22T06:58:17;11.50;99.90
64685;DHT22;51109;47.414;18.954;2022-10-22T07:00:43;11.60;99.90
64685;DHT22;51109;47.414;18.954;2022-10-22T07:03:11;11.80;99.90
64685;DHT22;51109;47.414;18.954;2022-10-22T07:05:37;12.00;99.90
64685;DHT22;51109;47.414;18.954;2022-10-22T07:08:04;12.10;99.90
64685;DHT22;51109;47.414;18.954;2022-10-22T07:10:30;12.20;99.90
64685;DHT22;51109;47.414;18.954;2022-10-22T07:12:57;12.20;99.90
64685;DHT22;51109;47.414;18.954;2022-10-22T07:15:23;12.20;99.90
64685;DHT22;51109;47.414;18.954;2022-10-22T07:17:49;12.20;99.90
64685;DHT22;51109;47.414;18.954;2022-10-22T07:20:17;12.10;99.90
64685;DHT22;51109;47.414;18.954;2022-10-22T07:22:44;12.00;99.90
64685;DHT22;51109;47.414;18.954;2022-10-22T07:25:10;12.10;99.90
64685;DHT22;51109;47.414;18.954;2022-10-22T07:27:36;12.10;99.90
64685;DHT22;51109;47.414;18.954;2022-10-22T07:30:02;12.10;99.90
64685;DHT22;51109;47.414;18.954;2022-10-22T07:32:29;12.00;99.90
64685;DHT22;51109;47.414;18.954;2022-10-22T07:34:55;12.10;99.90
64685;DHT22;51109;47.414;18.954;2022-10-22T07:37:20;12.10;99.90
64685;DHT22;51109;47.414;18.954;2022-10-22T07:39:47;12.20;99.90
64685;DHT22;51109;47.414;18.954;2022-10-22T07:42:13;12.20;99.90
64685;DHT22;51109;47.414;18.954;2022-10-22T07:44:39;12.30;99.90
64685;DHT22;51109;47.414;18.954;2022-10-22T07:47:05;12.50;99.90
64685;DHT22;51109;47.414;18.954;2022-10-22T07:49:31;12.60;99.90
64685;DHT22;51109;47.414;18.954;2022-10-22T07:51:57;12.70;99.90
64685;DHT22;51109;47.414;18.954;2022-10-22T07:54:23;12.80;99.90
64685;DHT22;51109;47.414;18.954;2022-10-22T07:56:49;12.90;99.90
64685;DHT22;51109;47.414;18.954;2022-10-22T07:59:15;13.10;99.90
64685;DHT22;51109;47.414;18.954;2022-10-22T08:01:41;13.20;99.90
64685;DHT22;51109;47.414;18.954;2022-10-22T08:04:07;13.40;99.90
64685;DHT22;51109;47.414;18.954;2022-10-22T08:06:35;13.50;99.90
64685;DHT22;51109;47.414;18.954;2022-10-22T08:09:01;13.60;99.90
64685;DHT22;51109;47.414;18.954;2022-10-22T08:11:27;13.70;99.90
64685;DHT22;51109;47.414;18.954;2022-10-22T08:13:53;13.80;99.90
64685;DHT22;51109;47.414;18.954;2022-10-22T08:16:18;14.00;99.90
64685;DHT22;51109;47.414;18.954;2022-10-22T08:18:44;14.20;99.90
64685;DHT22;51109;47.414;18.954;2022-10-22T08:21:11;14.30;99.90
64685;DHT22;51109;47.414;18.954;2022-10-22T08:23:37;14.50;99.90
64685;DHT22;51109;47.414;18.954;2022-10-22T08:26:04;14.80;99.90
64685;DHT22;51109;47.414;18.954;2022-10-22T08:28:30;14.80;99.90
64685;DHT22;51109;47.414;18.954;2022-10-22T08:31:00;15.00;99.90
64685;DHT22;51109;47.414;18.954;2022-10-22T08:33:26;15.20;99.90
64685;DHT22;51109;47.414;18.954;2022-10-22T08:35:52;15.20;99.90
64685;DHT22;51109;47.414;18.954;2022-10-22T08:38:18;15.20;99.90
64685;DHT22;51109;47.414;18.954;2022-10-22T08:40:48;15.10;99.90
64685;DHT22;51109;47.414;18.954;2022-10-22T08:48:42;14.80;99.90
64685;DHT22;51109;47.414;18.954;2022-10-22T08:51:15;14.70;99.90
64685;DHT22;51109;47.414;18.954;2022-10-22T08:56:22;14.70;99.90
64685;DHT22;51109;47.414;18.954;2022-10-22T08:58:58;14.60;99.90
64685;DHT22;51109;47.414;18.954;2022-10-22T09:01:46;14.50;99.90
64685;DHT22;51109;47.414;18.954;2022-10-22T09:04:17;14.40;99.90
64685;DHT22;51109;47.414;18.954;2022-10-22T09:06:46;14.40;99.90
64685;DHT22;51109;47.414;18.954;2022-10-22T09:09:17;14.40;99.90
64685;DHT22;51109;47.414;18.954;2022-10-22T09:11:53;14.40;99.90
64685;DHT22;51109;47.414;18.954;2022-10-22T09:14:23;14.30;99.90
64685;DHT22;51109;47.414;18.954;2022-10-22T09:17:18;14.30;99.90
64685;DHT22;51109;47.414;18.954;2022-10-22T09:20:32;14.30;99.90
64685;DHT22;51109;47.414;18.954;2022-10-22T09:23:20;14.40;99.90
64685;DHT22;51109;47.414;18.954;2022-10-22T09:25:48;14.40;99.90
64685;DHT22;51109;47.414;18.954;2022-10-22T09:28:16;14.40;99.90
64685;DHT22;51109;47.414;18.954;2022-10-22T09:30:42;14.50;99.90
64685;DHT22;51109;47.414;18.954;2022-10-22T09:33:19;14.40;99.90
64685;DHT22;51109;47.414;18.954;2022-10-22T09:35:51;14.50;99.90
64685;DHT22;51109;47.414;18.954;2022-10-22T09:38:20;14.30;99.90
64685;DHT22;51109;47.414;18.954;2022-10-22T09:40:51;14.30;99.90
64685;DHT22;51109;47.414;18.954;2022-10-22T09:43:17;14.30;99.90
64685;DHT22;51109;47.414;18.954;2022-10-22T09:45:48;14.30;99.90
64685;DHT22;51109;47.414;18.954;2022-10-22T09:48:22;14.20;99.90
64685;DHT22;51109;47.414;18.954;2022-10-22T09:51:21;14.30;99.90
64685;DHT22;51109;47.414;18.954;2022-10-22T09:54:02;14.30;99.90
64685;DHT22;51109;47.414;18.954;2022-10-22T09:56:40;14.30;99.90
64685;DHT22;51109;47.414;18.954;2022-10-22T09:59:17;14.30;99.90
64685;DHT22;51109;47.414;18.954;2022-10-22T10:01:44;14.40;99.90
64685;DHT22;51109;47.414;18.954;2022-10-22T10:04:13;14.40;99.90
64685;DHT22;51109;47.414;18.954;2022-10-22T10:06:42;14.40;99.90
64685;DHT22;51109;47.414;18.954;2022-10-22T10:09:17;14.50;99.90
64685;DHT22;51109;47.414;18.954;2022-10-22T10:14:28;14.50;99.90
64685;DHT22;51109;47.414;18.954;2022-10-22T10:19:53;14.60;99.90
64685;DHT22;51109;47.414;18.954;2022-10-22T10:22:36;14.70;99.90
64685;DHT22;51109;47.414;18.954;2022-10-22T10:30:30;14.70;99.90
64685;DHT22;51109;47.414;18.954;2022-10-22T10:35:54;14.60;99.90
64685;DHT22;51109;47.414;18.954;2022-10-22T10:41:18;14.70;99.90
64685;DHT22;51109;47.414;18.954;2022-10-22T10:46:41;14.70;99.90
64685;DHT22;51109;47.414;18.954;2022-10-22T11:08:08;14.80;99.90
64685;DHT22;51109;47.414;18.954;2022-10-22T11:10:51;14.80;99.90
64685;DHT22;51109;47.414;18.954;2022-10-22T11:15:47;14.80;99.90
64685;DHT22;51109;47.414;18.954;2022-10-22T11:20:54;14.90;99.90
64685;DHT22;51109;47.414;18.954;2022-10-22T11:26:05;14.80;99.90
64685;DHT22;51109;47.414;18.954;2022-10-22T11:28:46;14.80;99.90
64685;DHT22;51109;47.414;18.954;2022-10-22T11:31:16;14.90;99.90
64685;DHT22;51109;47.414;18.954;2022-10-22T11:33:50;14.90;99.90
64685;DHT22;51109;47.414;18.954;2022-10-22T11:36:20;15.00;99.90
64685;DHT22;51109;47.414;18.954;2022-10-22T11:38:47;15.10;99.90
64685;DHT22;51109;47.414;18.954;2022-10-22T11:41:18;15.30;99.90
64685;DHT22;51109;47.414;18.954;2022-10-22T11:44:00;15.40;99.90
64685;DHT22;51109;47.414;18.954;2022-10-22T11:47:03;15.40;99.90
64685;DHT22;51109;47.414;18.954;2022-10-22T11:49:55;15.40;99.90
64685;DHT22;51109;47.414;18.954;2022-10-22T11:55:00;15.40;99.90
64685;DHT22;51109;47.414;18.954;2022-10-22T11:59:56;15.50;99.90
64685;DHT22;51109;47.414;18.954;2022-10-22T12:02:38;15.40;99.90
64685;DHT22;51109;47.414;18.954;2022-10-22T12:10:21;15.50;99.90
64685;DHT22;51109;47.414;18.954;2022-10-22T12:12:55;15.70;99.90
64685;DHT22;51109;47.414;18.954;2022-10-22T12:15:23;15.90;99.90
64685;DHT22;51109;47.414;18.954;2022-10-22T12:17:59;15.90;99.90
64685;DHT22;51109;47.414;18.954;2022-10-22T12:20:26;15.90;99.90
64685;DHT22;51109;47.414;18.954;2022-10-22T12:22:53;16.00;99.90
64685;DHT22;51109;47.414;18.954;2022-10-22T12:25:24;16.00;99.90
64685;DHT22;51109;47.414;18.954;2022-10-22T12:27:53;16.00;99.90
64685;DHT22;51109;47.414;18.954;2022-10-22T12:32:51;16.00;99.90
64685;DHT22;51109;47.414;18.954;2022-10-22T12:35:21;15.80;99.90
64685;DHT22;51109;47.414;18.954;2022-10-22T12:38:28;15.70;99.90
64685;DHT22;51109;47.414;18.954;2022-10-22T12:40:55;15.60;99.90
64685;DHT22;51109;47.414;18.954;2022-10-22T12:43:29;15.50;99.90
64685;DHT22;51109;47.414;18.954;2022-10-22T12:45:55;15.40;99.90
64685;DHT22;51109;47.414;18.954;2022-10-22T12:48:27;15.40;99.90
64685;DHT22;51109;47.414;18.954;2022-10-22T12:50:58;15.40;99.90
64685;DHT22;51109;47.414;18.954;2022-10-22T12:53:36;15.50;99.90
64685;DHT22;51109;47.414;18.954;2022-10-22T12:56:06;15.50;99.90
64685;DHT22;51109;47.414;18.954;2022-10-22T12:58:41;15.50;99.90
64685;DHT22;51109;47.414;18.954;2022-10-22T13:01:11;15.50;99.90
64685;DHT22;51109;47.414;18.954;2022-10-22T13:03:45;15.40;99.90
64685;DHT22;51109;47.414;18.954;2022-10-22T13:06:13;15.40;99.90
64685;DHT22;51109;47.414;18.954;2022-10-22T13:09:18;15.30;99.90
64685;DHT22;51109;47.414;18.954;2022-10-22T13:12:02;15.30;99.90
64685;DHT22;51109;47.414;18.954;2022-10-22T13:14:34;15.30;99.90
64685;DHT22;51109;47.414;18.954;2022-10-22T13:17:17;15.30;99.90
64685;DHT22;51109;47.414;18.954;2022-10-22T13:20:04;15.30;99.90
64685;DHT22;51109;47.414;18.954;2022-10-22T13:22:50;15.30;99.90
64685;DHT22;51109;47.414;18.954;2022-10-22T13:27:50;15.30;99.90
64685;DHT22;51109;47.414;18.954;2022-10-22T13:32:50;15.30;99.90
64685;DHT22;51109;47.414;18.954;2022-10-22T13:35:20;15.30;99.90
64685;DHT22;51109;47.414;18.954;2022-10-22T13:37:47;15.40;99.90
64685;DHT22;51109;47.414;18.954;2022-10-22T13:40:14;15.40;99.90
64685;DHT22;51109;47.414;18.954;2022-10-22T13:42:39;15.40;99.90
64685;DHT22;51109;47.414;18.954;2022-10-22T13:45:06;15.30;99.90
64685;DHT22;51109;47.414;18.954;2022-10-22T13:47:32;15.30;99.90
64685;DHT22;51109;47.414;18.954;2022-10-22T13:50:01;15.30;99.90
64685;DHT22;51109;47.414;18.954;2022-10-22T13:52:42;15.40;99.90
64685;DHT22;51109;47.414;18.954;2022-10-22T13:55:14;15.40;99.90
64685;DHT22;51109;47.414;18.954;2022-10-22T13:57:40;15.40;99.90
64685;DHT22;51109;47.414;18.954;2022-10-22T14:00:10;15.40;99.90
64685;DHT22;51109;47.414;18.954;2022-10-22T14:02:36;15.40;99.90
64685;DHT22;51109;47.414;18.954;2022-10-22T14:05:03;15.40;99.90
64685;DHT22;51109;47.414;18.954;2022-10-22T14:07:33;15.40;99.90
64685;DHT22;51109;47.414;18.954;2022-10-22T14:09:59;15.40;99.90
64685;DHT22;51109;47.414;18.954;2022-10-22T14:12:25;15.50;99.90
64685;DHT22;51109;47.414;18.954;2022-10-22T14:14:53;15.50;99.90
64685;DHT22;51109;47.414;18.954;2022-10-22T14:17:19;15.50;99.90
64685;DHT22;51109;47.414;18.954;2022-10-22T14:19:46;15.40;99.90
64685;DHT22;51109;47.414;18.954;2022-10-22T14:22:18;15.40;99.90
64685;DHT22;51109;47.414;18.954;2022-10-22T14:24:45;15.40;99.90
64685;DHT22;51109;47.414;18.954;2022-10-22T14:27:13;15.40;99.90
64685;DHT22;51109;47.414;18.954;2022-10-22T14:29:40;15.30;99.90
64685;DHT22;51109;47.414;18.954;2022-10-22T14:32:17;15.30;99.90
64685;DHT22;51109;47.414;18.954;2022-10-22T14:34:47;15.20;99.90
64685;DHT22;51109;47.414;18.954;2022-10-22T14:37:18;15.20;99.90
64685;DHT22;51109;47.414;18.954;2022-10-22T14:39:45;15.20;99.90
64685;DHT22;51109;47.414;18.954;2022-10-22T14:42:17;15.10;99.90
64685;DHT22;51109;47.414;18.954;2022-10-22T14:44:44;15.10;99.90
64685;DHT22;51109;47.414;18.954;2022-10-22T14:47:10;15.10;99.90
64685;DHT22;51109;47.414;18.954;2022-10-22T14:49:36;15.10;99.90
64685;DHT22;51109;47.414;18.954;2022-10-22T14:52:02;15.10;99.90
64685;DHT22;51109;47.414;18.954;2022-10-22T14:54:28;15.00;99.90
64685;DHT22;51109;47.414;18.954;2022-10-22T14:56:54;15.00;99.90
64685;DHT22;51109;47.414;18.954;2022-10-22T14:59:20;15.00;99.90
64685;DHT22;51109;47.414;18.954;2022-10-22T15:01:46;14.90;99.90
64685;DHT22;51109;47.414;18.954;2022-10-22T15:04:12;14.90;99.90
64685;DHT22;51109;47.414;18.954;2022-10-22T15:06:38;14.90;99.90
64685;DHT22;51109;47.414;18.954;2022-10-22T15:09:04;14.90;99.90
64685;DHT22;51109;47.414;18.954;2022-10-22T15:11:30;14.80;99.90
64685;DHT22;51109;47.414;18.954;2022-10-22T15:13:56;14.70;99.90
64685;DHT22;51109;47.414;18.954;2022-10-22T15:16:22;14.60;99.90
64685;DHT22;51109;47.414;18.954;2022-10-22T15:18:49;14.60;99.90
64685;DHT22;51109;47.414;18.954;2022-10-22T15:21:17;14.50;99.90
64685;DHT22;51109;47.414;18.954;2022-10-22T15:23:43;14.50;99.90
64685;DHT22;51109;47.414;18.954;2022-10-22T15:26:11;14.50;99.90
64685;DHT22;51109;47.414;18.954;2022-10-22T15:28:38;14.40;99.90
64685;DHT22;51109;47.414;18.954;2022-10-22T15:31:06;14.40;99.90
64685;DHT22;51109;47.414;18.954;2022-10-22T15:33:32;14.30;99.90
64685;DHT22;51109;47.414;18.954;2022-10-22T15:36:12;14.30;99.90
64685;DHT22;51109;47.414;18.954;2022-10-22T15:38:38;14.30;99.90
64685;DHT22;51109;47.414;18.954;2022-10-22T15:41:06;14.20;99.90
64685;DHT22;51109;47.414;18.954;2022-10-22T15:43:33;14.20;99.90
64685;DHT22;51109;47.414;18.954;2022-10-22T15:48:36;14.20;99.90
64685;DHT22;51109;47.414;18.954;2022-10-22T15:51:11;14.20;99.90
64685;DHT22;51109;47.414;18.954;2022-10-22T15:53:37;14.20;99.90
64685;DHT22;51109;47.414;18.954;2022-10-22T15:56:04;14.10;99.90
64685;DHT22;51109;47.414;18.954;2022-10-22T15:58:30;14.00;99.90
64685;DHT22;51109;47.414;18.954;2022-10-22T16:01:06;14.00;99.90
64685;DHT22;51109;47.414;18.954;2022-10-22T16:03:33;14.00;99.90
64685;DHT22;51109;47.414;18.954;2022-10-22T16:05:59;14.00;99.90
64685;DHT22;51109;47.414;18.954;2022-10-22T16:08:25;13.90;99.90
64685;DHT22;51109;47.414;18.954;2022-10-22T16:10:51;13.80;99.90
64685;DHT22;51109;47.414;18.954;2022-10-22T16:13:19;13.70;99.90
64685;DHT22;51109;47.414;18.954;2022-10-22T16:15:46;13.70;99.90
64685;DHT22;51109;47.414;18.954;2022-10-22T16:18:12;13.60;99.90
64685;DHT22;51109;47.414;18.954;2022-10-22T16:20:39;13.50;99.90
64685;DHT22;51109;47.414;18.954;2022-10-22T16:23:05;13.40;99.90
64685;DHT22;51109;47.414;18.954;2022-10-22T16:25:41;13.30;99.90
64685;DHT22;51109;47.414;18.954;2022-10-22T16:28:08;13.30;99.90
64685;DHT22;51109;47.414;18.954;2022-10-22T16:30:36;13.30;99.90
64685;DHT22;51109;47.414;18.954;2022-10-22T16:33:03;13.20;99.90
64685;DHT22;51109;47.414;18.954;2022-10-22T16:35:30;13.20;99.90
64685;DHT22;51109;47.414;18.954;2022-10-22T16:37:56;13.00;99.90
64685;DHT22;51109;47.414;18.954;2022-10-22T16:40:22;13.00;99.90
64685;DHT22;51109;47.414;18.954;2022-10-22T16:42:51;13.00;99.90
64685;DHT22;51109;47.414;18.954;2022-10-22T16:45:17;13.00;99.90
64685;DHT22;51109;47.414;18.954;2022-10-22T16:47:43;12.90;99.90
64685;DHT22;51109;47.414;18.954;2022-10-22T16:50:11;12.90;99.90
64685;DHT22;51109;47.414;18.954;2022-10-22T16:52:38;12.80;99.90
64685;DHT22;51109;47.414;18.954;2022-10-22T16:55:04;12.90;99.90
64685;DHT22;51109;47.414;18.954;2022-10-22T16:57:30;12.80;99.90
64685;DHT22;51109;47.414;18.954;2022-10-22T16:59:56;12.70;99.90
64685;DHT22;51109;47.414;18.954;2022-10-22T17:02:22;12.70;99.90
64685;DHT22;51109;47.414;18.954;2022-10-22T17:04:48;12.60;99.90
64685;DHT22;51109;47.414;18.954;2022-10-22T17:07:14;12.60;99.90
64685;DHT22;51109;47.414;18.954;2022-10-22T17:09:40;12.70;99.90
64685;DHT22;51109;47.414;18.954;2022-10-22T17:12:06;12.60;99.90
64685;DHT22;51109;47.414;18.954;2022-10-22T17:14:32;12.60;99.90